Time;durP1;ratioP1;P1;durP2;ratioP2;P2;SDS_P1;SDS_P2;PMS_P1;PMS_P2;Temp;Humidity;BMP_temperature;BMP_pressure;BME280_temperature;BME280_humidity;BME280_pressure;Samples;Min_cycle;Max_cycle;Signal;HPM_P1;HPM_P2
2021/05/22 00:02:18;;;;;;;13.30;12.60;;;10.10;99.90;;;;;;5063736;28;20535;-73
2021/05/22 00:04:44;;;;;;;13.47;12.67;;;10.10;99.90;;;;;;5060521;28;20474;-76
2021/05/22 00:07:10;;;;;;;13.60;12.90;;;10.10;99.90;;;;;;5064958;28;20471;-73
2021/05/22 00:09:38;;;;;;;13.03;12.43;;;10.00;99.90;;;;;;5058259;28;20511;-75
2021/05/22 00:12:05;;;;;;;14.00;13.20;;;10.10;99.90;;;;;;5059375;28;20514;-74
2021/05/22 00:14:31;;;;;;;13.10;12.40;;;10.00;99.90;;;;;;5062797;28;20482;-74
2021/05/22 00:16:57;;;;;;;14.90;13.70;;;10.00;99.90;;;;;;5061366;28;20576;-76
2021/05/22 00:19:24;;;;;;;14.27;13.40;;;10.00;99.90;;;;;;5054486;28;20466;-75
2021/05/22 00:21:50;;;;;;;14.60;13.70;;;9.90;99.90;;;;;;5055074;28;20475;-74
2021/05/22 00:24:16;;;;;;;13.73;13.03;;;9.80;99.90;;;;;;5062510;28;20969;-74
2021/05/22 00:26:44;;;;;;;14.67;13.57;;;9.80;99.90;;;;;;5062339;28;20467;-77
2021/05/22 00:29:10;;;;;;;13.90;13.10;;;9.70;99.90;;;;;;5055885;28;20470;-74
2021/05/22 00:31:36;;;;;;;13.67;12.97;;;9.70;99.90;;;;;;5065104;28;20899;-74
2021/05/22 00:34:04;;;;;;;13.47;12.87;;;9.70;99.90;;;;;;5062862;28;20472;-75
2021/05/22 00:36:30;;;;;;;13.87;13.07;;;9.70;99.90;;;;;;5059391;28;20462;-74
2021/05/22 00:38:56;;;;;;;14.10;13.13;;;9.50;99.90;;;;;;5055676;28;20470;-73
2021/05/22 00:41:23;;;;;;;14.27;13.20;;;9.50;99.90;;;;;;5067691;28;20916;-74
2021/05/22 00:43:50;;;;;;;14.40;13.60;;;9.50;99.90;;;;;;5054750;28;20540;-73
2021/05/22 00:46:17;;;;;;;14.13;13.20;;;9.50;99.90;;;;;;5062118;28;20453;-73
2021/05/22 00:48:43;;;;;;;14.93;13.83;;;9.50;99.90;;;;;;5054639;28;20471;-73
2021/05/22 00:51:09;;;;;;;14.10;13.00;;;9.40;99.90;;;;;;5048303;28;20993;-74
2021/05/22 00:53:36;;;;;;;13.90;13.20;;;9.40;99.90;;;;;;5062807;28;20469;-72
2021/05/22 00:56:03;;;;;;;13.37;12.63;;;9.40;99.90;;;;;;5061199;28;20476;-73
2021/05/22 00:58:30;;;;;;;13.53;12.77;;;9.30;99.90;;;;;;5057844;28;20547;-76
2021/05/22 01:00:58;;;;;;;14.20;13.40;;;9.30;99.90;;;;;;5059655;28;20815;-77
2021/05/22 01:03:27;;;;;;;14.43;13.50;;;9.30;99.90;;;;;;5054789;28;20468;-74
2021/05/22 01:06:05;;;;;;;13.67;12.50;;;9.30;99.90;;;;;;5052924;28;20472;-74
2021/05/22 01:08:32;;;;;;;13.90;13.20;;;9.30;99.90;;;;;;5065149;28;20469;-73
2021/05/22 01:11:01;;;;;;;14.17;13.47;;;9.30;99.90;;;;;;5061845;28;20518;-74
2021/05/22 01:13:32;;;;;;;14.33;13.40;;;9.20;99.90;;;;;;5059898;28;20463;-73
2021/05/22 01:15:59;;;;;;;14.97;13.60;;;9.20;99.90;;;;;;5061226;28;20468;-73
2021/05/22 01:18:26;;;;;;;14.70;13.70;;;9.20;99.90;;;;;;5062115;28;20526;-76
2021/05/22 01:20:56;;;;;;;14.50;13.57;;;9.20;99.90;;;;;;5057012;28;20470;-74
2021/05/22 01:23:28;;;;;;;13.87;12.93;;;9.20;99.90;;;;;;5058329;28;20563;-75
2021/05/22 01:25:57;;;;;;;13.67;12.67;;;9.30;99.90;;;;;;5056036;28;20480;-73
2021/05/22 01:28:24;;;;;;;14.23;12.43;;;9.30;99.90;;;;;;5059935;28;20805;-73
2021/05/22 01:30:50;;;;;;;13.60;12.60;;;9.40;99.90;;;;;;5055115;28;20485;-73
2021/05/22 01:33:20;;;;;;;14.57;13.40;;;9.30;99.90;;;;;;5055673;28;20474;-73
2021/05/22 01:35:46;;;;;;;13.73;12.47;;;9.40;99.90;;;;;;5061553;28;20459;-73
2021/05/22 01:38:13;;;;;;;14.17;13.17;;;9.40;99.90;;;;;;5055239;28;20465;-73
2021/05/22 01:40:39;;;;;;;13.33;12.63;;;9.40;99.90;;;;;;5061757;28;20500;-76
2021/05/22 01:43:08;;;;;;;13.90;13.10;;;9.50;99.90;;;;;;5059942;28;20455;-74
2021/05/22 01:45:37;;;;;;;17.83;12.57;;;9.50;99.90;;;;;;5055174;28;20470;-73
2021/05/22 01:48:06;;;;;;;13.33;12.20;;;9.50;99.90;;;;;;5058829;28;20805;-73
2021/05/22 01:50:35;;;;;;;13.50;12.60;;;9.50;99.90;;;;;;5056706;28;20903;-73
2021/05/22 01:53:05;;;;;;;13.17;12.47;;;9.50;99.90;;;;;;5061765;28;20911;-73
2021/05/22 01:55:32;;;;;;;13.57;12.70;;;9.50;99.90;;;;;;5057329;28;21276;-73
2021/05/22 01:58:00;;;;;;;13.60;12.67;;;9.50;99.90;;;;;;5058470;28;20527;-73
2021/05/22 02:00:29;;;;;;;13.53;12.83;;;9.50;99.90;;;;;;5058938;28;20476;-73
2021/05/22 02:03:01;;;;;;;13.80;12.80;;;9.50;99.90;;;;;;5060393;28;20466;-73
2021/05/22 02:05:29;;;;;;;14.30;13.40;;;9.50;99.90;;;;;;5060662;28;20648;-73
2021/05/22 02:07:57;;;;;;;13.50;12.50;;;9.50;99.90;;;;;;5056480;28;20458;-73
2021/05/22 02:10:26;;;;;;;14.27;13.47;;;9.50;99.90;;;;;;5056828;28;21031;-75
2021/05/22 02:12:55;;;;;;;13.23;12.43;;;9.50;99.90;;;;;;5057169;28;20464;-74
2021/05/22 02:15:23;;;;;;;13.70;12.67;;;9.50;99.90;;;;;;5060063;28;20456;-75
2021/05/22 02:17:52;;;;;;;13.37;12.57;;;9.50;99.90;;;;;;5055476;28;20466;-73
2021/05/22 02:20:21;;;;;;;13.30;12.40;;;9.50;99.90;;;;;;5056166;28;20486;-75
2021/05/22 02:22:48;;;;;;;13.30;12.50;;;9.50;99.90;;;;;;5057415;28;20473;-75
2021/05/22 02:25:16;;;;;;;13.37;12.67;;;9.50;99.90;;;;;;5055994;28;20562;-74
2021/05/22 02:27:43;;;;;;;13.40;12.70;;;9.50;99.90;;;;;;5058185;28;21182;-73
2021/05/22 02:30:11;;;;;;;14.17;13.20;;;9.50;99.90;;;;;;5058443;28;20484;-73
2021/05/22 02:32:40;;;;;;;13.50;12.70;;;9.50;99.90;;;;;;5057190;28;20884;-74
2021/05/22 02:35:10;;;;;;;13.37;12.50;;;9.50;99.90;;;;;;5063689;28;21033;-74
2021/05/22 02:37:37;;;;;;;12.83;11.93;;;9.60;99.90;;;;;;5060228;28;20453;-74
2021/05/22 02:40:10;;;;;;;12.93;12.10;;;9.60;99.90;;;;;;5059990;28;20535;-74
2021/05/22 02:42:38;;;;;;;13.27;12.27;;;9.60;99.90;;;;;;5056552;28;20519;-74
2021/05/22 02:45:08;;;;;;;13.20;12.20;;;9.60;99.90;;;;;;5060121;28;20457;-76
2021/05/22 02:47:35;;;;;;;13.03;12.13;;;9.70;99.90;;;;;;5058985;28;20460;-73
2021/05/22 02:50:04;;;;;;;13.00;12.00;;;9.70;99.90;;;;;;5060699;28;20486;-76
2021/05/22 02:52:33;;;;;;;14.30;13.10;;;9.70;99.90;;;;;;5062507;28;20491;-74
2021/05/22 02:55:02;;;;;;;13.23;12.07;;;9.60;99.90;;;;;;5062000;28;20963;-74
2021/05/22 02:57:29;;;;;;;12.10;11.40;;;9.60;99.90;;;;;;5057249;28;20542;-76
2021/05/22 02:59:57;;;;;;;12.80;12.00;;;9.60;99.90;;;;;;5049294;28;20458;-74
2021/05/22 03:02:24;;;;;;;12.20;11.40;;;9.60;99.90;;;;;;5056353;28;20463;-74
2021/05/22 03:04:51;;;;;;;12.73;11.80;;;9.60;99.90;;;;;;5059179;28;20525;-73
2021/05/22 03:07:18;;;;;;;13.03;12.33;;;9.60;99.90;;;;;;5063423;28;20822;-74
2021/05/22 03:09:47;;;;;;;12.73;11.50;;;9.60;99.90;;;;;;5058919;28;20472;-75
2021/05/22 03:12:18;;;;;;;13.43;12.43;;;9.60;99.90;;;;;;5056643;28;20538;-74
2021/05/22 03:14:44;;;;;;;14.50;13.10;;;9.50;99.90;;;;;;5060124;28;20461;-77
2021/05/22 03:17:11;;;;;;;13.07;12.23;;;9.60;99.90;;;;;;5060321;28;20855;-76
2021/05/22 03:19:37;;;;;;;14.07;12.87;;;9.60;99.90;;;;;;5055210;28;20463;-74
2021/05/22 03:22:04;;;;;;;13.70;12.60;;;9.60;99.90;;;;;;5059607;28;20802;-77
2021/05/22 03:24:30;;;;;;;13.20;12.13;;;9.70;99.90;;;;;;5050310;28;20461;-75
2021/05/22 03:26:58;;;;;;;13.03;12.23;;;9.90;99.90;;;;;;5056107;28;20523;-74
2021/05/22 03:29:24;;;;;;;12.70;11.63;;;10.00;99.90;;;;;;5057152;28;20944;-73
2021/05/22 03:31:51;;;;;;;16.07;13.57;;;10.10;99.90;;;;;;5065793;28;20492;-78
2021/05/22 03:34:17;;;;;;;13.67;12.50;;;10.20;99.90;;;;;;5063171;28;20548;-74
2021/05/22 03:36:44;;;;;;;13.50;12.60;;;10.20;99.90;;;;;;5057634;28;20466;-74
2021/05/22 03:39:11;;;;;;;14.10;13.07;;;10.20;99.90;;;;;;5059907;28;20471;-73
2021/05/22 03:41:37;;;;;;;14.20;13.27;;;10.30;99.90;;;;;;5061984;28;20842;-74
2021/05/22 03:44:05;;;;;;;13.73;12.83;;;10.30;99.90;;;;;;5060976;28;20470;-76
2021/05/22 03:46:31;;;;;;;17.40;13.00;;;10.30;99.90;;;;;;5056949;28;20467;-76
2021/05/22 03:48:57;;;;;;;13.90;12.60;;;10.40;99.90;;;;;;5058960;28;20461;-76
2021/05/22 03:51:24;;;;;;;14.27;13.13;;;10.40;99.90;;;;;;5062862;28;20502;-77
2021/05/22 03:53:51;;;;;;;15.60;13.13;;;10.50;99.90;;;;;;5059830;28;20873;-73
2021/05/22 03:56:17;;;;;;;15.27;13.77;;;10.50;99.90;;;;;;5057690;28;20578;-74
2021/05/22 03:58:43;;;;;;;14.60;13.57;;;10.50;99.90;;;;;;5062888;28;20713;-74
2021/05/22 04:01:10;;;;;;;16.13;14.90;;;10.40;99.90;;;;;;5061093;28;21006;-73
2021/05/22 04:03:37;;;;;;;16.00;14.70;;;10.30;99.90;;;;;;5061365;28;20466;-73
2021/05/22 04:06:03;;;;;;;16.63;15.37;;;10.20;99.90;;;;;;5064280;28;20465;-75
2021/05/22 04:08:30;;;;;;;17.20;15.90;;;10.20;99.90;;;;;;5054981;28;20467;-73
2021/05/22 04:10:58;;;;;;;16.03;14.93;;;10.10;99.90;;;;;;5055632;28;20498;-73
2021/05/22 04:13:25;;;;;;;16.33;15.00;;;10.10;99.90;;;;;;5062740;28;20524;-73
2021/05/22 04:15:51;;;;;;;14.50;13.60;;;10.20;99.90;;;;;;5060709;28;20551;-74
2021/05/22 04:18:18;;;;;;;16.20;14.50;;;10.20;99.90;;;;;;5060677;28;20921;-74
2021/05/22 04:20:45;;;;;;;14.57;13.10;;;10.20;99.90;;;;;;5058542;28;20812;-73
2021/05/22 04:23:12;;;;;;;15.10;13.77;;;10.20;99.90;;;;;;5062771;28;20482;-74
2021/05/22 04:25:39;;;;;;;14.40;13.30;;;10.30;99.90;;;;;;5055111;28;20476;-73
2021/05/22 04:28:05;;;;;;;16.03;14.17;;;10.40;99.90;;;;;;5063871;28;20466;-73
2021/05/22 04:30:32;;;;;;;13.43;12.73;;;10.40;99.90;;;;;;5063756;28;20481;-74
2021/05/22 04:32:58;;;;;;;15.27;13.87;;;10.40;99.90;;;;;;5060360;28;20522;-73
2021/05/22 04:35:25;;;;;;;14.33;13.33;;;10.50;99.90;;;;;;5057899;28;20461;-73
2021/05/22 04:37:53;;;;;;;13.77;12.67;;;10.60;99.90;;;;;;5056535;28;20822;-73
2021/05/22 04:40:20;;;;;;;13.97;12.63;;;10.60;99.90;;;;;;5061640;28;20526;-76
2021/05/22 04:42:46;;;;;;;14.23;13.07;;;10.70;99.90;;;;;;5061426;28;20519;-74
2021/05/22 04:45:14;;;;;;;14.43;13.17;;;10.70;99.90;;;;;;5057446;28;20482;-73
2021/05/22 04:47:41;;;;;;;13.73;12.77;;;10.70;99.90;;;;;;5060284;28;20465;-74
2021/05/22 04:50:09;;;;;;;14.50;12.80;;;10.70;99.90;;;;;;5057710;28;20480;-73
2021/05/22 04:52:37;;;;;;;13.67;12.57;;;10.70;99.90;;;;;;5055081;28;20467;-74
2021/05/22 04:55:04;;;;;;;14.07;13.03;;;10.80;99.90;;;;;;5063212;28;20467;-74
2021/05/22 04:57:30;;;;;;;13.97;13.00;;;10.80;99.90;;;;;;5060994;28;20470;-74
2021/05/22 04:59:57;;;;;;;14.50;13.00;;;10.90;99.90;;;;;;5058542;28;20611;-77
2021/05/22 05:02:23;;;;;;;13.53;12.73;;;10.90;99.90;;;;;;5056935;28;20467;-74
2021/05/22 05:04:49;;;;;;;13.30;12.07;;;11.00;99.90;;;;;;5062909;28;20464;-74
2021/05/22 05:07:15;;;;;;;13.30;12.27;;;11.00;99.90;;;;;;5055398;28;20460;-75
2021/05/22 05:09:43;;;;;;;14.07;12.80;;;11.00;99.90;;;;;;5054952;28;20467;-74
2021/05/22 05:12:12;;;;;;;17.93;13.40;;;11.10;99.90;;;;;;5060505;28;20469;-74
2021/05/22 05:14:40;;;;;;;13.73;12.70;;;11.20;99.90;;;;;;5057116;28;20855;-74
2021/05/22 05:17:07;;;;;;;13.90;12.73;;;11.20;99.90;;;;;;5061281;28;20466;-77
2021/05/22 05:19:34;;;;;;;13.23;12.43;;;11.30;99.90;;;;;;5058983;28;20521;-74
2021/05/22 05:22:00;;;;;;;13.50;12.53;;;11.40;99.90;;;;;;5055115;28;20812;-75
2021/05/22 05:24:27;;;;;;;13.50;12.30;;;11.50;99.90;;;;;;5054987;28;20466;-73
2021/05/22 05:26:54;;;;;;;13.53;12.73;;;11.50;99.90;;;;;;5060974;28;20474;-72
2021/05/22 05:29:21;;;;;;;13.17;12.03;;;11.60;99.90;;;;;;5053245;28;20459;-74
2021/05/22 05:31:47;;;;;;;14.57;13.33;;;11.60;99.90;;;;;;5061690;28;20522;-72
2021/05/22 05:34:13;;;;;;;13.87;12.87;;;11.60;99.90;;;;;;5060657;28;20462;-72
2021/05/22 05:36:40;;;;;;;13.83;12.67;;;11.60;99.90;;;;;;5057413;28;20910;-72
2021/05/22 05:39:07;;;;;;;13.17;12.10;;;11.60;99.90;;;;;;5055983;28;20806;-72
2021/05/22 05:41:33;;;;;;;13.67;12.47;;;11.70;99.90;;;;;;5059673;28;20493;-74
2021/05/22 05:44:00;;;;;;;13.73;12.83;;;11.60;99.90;;;;;;5061306;28;20459;-74
2021/05/22 05:46:27;;;;;;;13.83;12.60;;;11.60;99.90;;;;;;5061128;28;20450;-74
2021/05/22 05:48:54;;;;;;;13.80;12.57;;;11.60;99.90;;;;;;5062346;28;20551;-76
2021/05/22 05:51:21;;;;;;;14.10;13.30;;;11.50;99.90;;;;;;5054796;28;20491;-75
2021/05/22 05:53:47;;;;;;;13.87;12.93;;;11.70;99.90;;;;;;5053273;28;20978;-76
2021/05/22 05:56:13;;;;;;;13.53;12.40;;;11.70;99.90;;;;;;5058615;28;20468;-73
2021/05/22 05:58:39;;;;;;;12.83;12.00;;;11.70;99.90;;;;;;5057127;28;20463;-73
2021/05/22 06:01:08;;;;;;;13.03;12.20;;;11.80;99.90;;;;;;5058220;28;20758;-73
2021/05/22 06:03:34;;;;;;;14.30;13.07;;;11.70;99.90;;;;;;5057809;28;20518;-77
2021/05/22 06:06:01;;;;;;;13.33;12.53;;;11.60;99.90;;;;;;5061169;28;20466;-74
2021/05/22 06:08:27;;;;;;;12.93;12.30;;;11.60;99.90;;;;;;5052760;28;20470;-76
2021/05/22 06:10:54;;;;;;;13.07;12.03;;;11.60;99.90;;;;;;5061738;28;20494;-73
2021/05/22 06:13:25;;;;;;;14.27;13.23;;;11.50;99.90;;;;;;5054207;28;20463;-76
2021/05/22 06:16:00;;;;;;;12.77;12.07;;;11.50;99.90;;;;;;5059270;28;20463;-75
2021/05/22 06:18:30;;;;;;;13.33;12.43;;;11.50;99.90;;;;;;5052793;28;20502;-75
2021/05/22 06:20:57;;;;;;;13.17;12.20;;;11.70;99.90;;;;;;5051890;28;21120;-75
2021/05/22 06:23:23;;;;;;;13.67;12.67;;;11.70;99.90;;;;;;5053839;28;20782;-74
2021/05/22 06:25:50;;;;;;;13.07;12.30;;;11.70;99.90;;;;;;5060174;28;20772;-74
2021/05/22 06:28:16;;;;;;;12.60;11.80;;;11.70;99.90;;;;;;5058642;28;20857;-75
2021/05/22 06:30:43;;;;;;;13.30;12.23;;;11.60;99.90;;;;;;5049009;28;20982;-75
2021/05/22 06:33:09;;;;;;;14.20;13.00;;;11.50;99.90;;;;;;5056384;28;20992;-76
2021/05/22 06:35:36;;;;;;;14.00;12.83;;;11.50;99.90;;;;;;5059303;28;20481;-77
2021/05/22 06:38:03;;;;;;;15.67;14.40;;;11.40;99.90;;;;;;5060483;28;20474;-73
2021/05/22 06:40:29;;;;;;;17.20;16.00;;;11.30;99.90;;;;;;5052911;28;20491;-73
2021/05/22 06:42:56;;;;;;;18.17;16.80;;;11.00;99.90;;;;;;5052324;28;20470;-75
2021/05/22 06:45:25;;;;;;;18.70;17.47;;;10.90;99.90;;;;;;5059869;28;20896;-74
2021/05/22 06:47:51;;;;;;;18.77;17.43;;;10.80;99.90;;;;;;5062330;28;20474;-73
2021/05/22 06:50:18;;;;;;;17.47;16.37;;;10.80;99.90;;;;;;5055101;28;20847;-73
2021/05/22 06:52:46;;;;;;;17.60;16.27;;;10.70;99.90;;;;;;5052622;28;20463;-73
2021/05/22 06:55:12;;;;;;;20.53;17.53;;;10.60;99.90;;;;;;5052330;28;20461;-74
2021/05/22 06:57:39;;;;;;;18.13;16.27;;;10.60;99.90;;;;;;5052416;28;20463;-73
2021/05/22 07:00:07;;;;;;;17.63;16.07;;;10.70;99.90;;;;;;5055317;28;20453;-74
2021/05/22 07:02:33;;;;;;;15.03;14.13;;;10.60;99.90;;;;;;5056774;28;20984;-73
2021/05/22 07:04:59;;;;;;;16.20;15.00;;;10.60;99.90;;;;;;5056792;28;20453;-75
2021/05/22 07:07:26;;;;;;;15.47;14.43;;;10.60;99.90;;;;;;5061298;28;20855;-74
2021/05/22 07:09:54;;;;;;;14.90;13.70;;;10.80;99.90;;;;;;5057842;28;20473;-73
2021/05/22 07:12:20;;;;;;;14.10;13.40;;;10.80;99.90;;;;;;5057010;28;20754;-75
2021/05/22 07:14:46;;;;;;;15.63;13.83;;;10.90;99.90;;;;;;5058120;28;20474;-76
2021/05/22 07:17:13;;;;;;;14.83;13.93;;;11.20;99.90;;;;;;5061241;28;20486;-75
2021/05/22 07:19:40;;;;;;;15.20;14.13;;;11.30;99.90;;;;;;5061412;28;20469;-73
2021/05/22 07:22:06;;;;;;;16.17;14.70;;;11.30;99.90;;;;;;5059299;28;20552;-74
2021/05/22 07:24:32;;;;;;;14.90;14.10;;;11.10;99.90;;;;;;5064273;28;20458;-74
2021/05/22 07:26:59;;;;;;;15.73;14.30;;;11.10;99.90;;;;;;5054816;28;20475;-73
2021/05/22 07:29:27;;;;;;;14.97;14.17;;;11.10;99.90;;;;;;5060610;28;20842;-73
2021/05/22 07:31:53;;;;;;;20.97;19.40;;;11.10;99.90;;;;;;5056451;28;20679;-74
2021/05/22 07:34:19;;;;;;;26.70;24.60;;;10.90;99.90;;;;;;5061477;28;20540;-74
2021/05/22 07:36:46;;;;;;;24.97;22.90;;;10.60;99.90;;;;;;5061993;28;20470;-77
2021/05/22 07:39:14;;;;;;;23.30;21.80;;;10.30;99.90;;;;;;5055282;28;20456;-74
2021/05/22 07:41:41;;;;;;;21.47;20.07;;;10.20;99.90;;;;;;5057187;28;20491;-74
2021/05/22 07:44:09;;;;;;;20.57;19.37;;;10.20;99.90;;;;;;5057209;28;20461;-74
2021/05/22 07:46:35;;;;;;;19.20;18.10;;;10.20;99.90;;;;;;5055777;28;21028;-75
2021/05/22 07:49:02;;;;;;;18.10;17.10;;;10.20;99.90;;;;;;5052064;28;20468;-76
2021/05/22 07:51:29;;;;;;;18.20;17.20;;;10.30;99.90;;;;;;5058857;28;20493;-75
2021/05/22 07:53:56;;;;;;;17.60;16.70;;;10.20;99.90;;;;;;5058660;28;20872;-76
2021/05/22 07:56:22;;;;;;;16.63;15.73;;;10.20;99.90;;;;;;5060915;28;20587;-74
2021/05/22 07:58:49;;;;;;;16.60;15.70;;;10.30;99.90;;;;;;5058316;28;20474;-74
2021/05/22 08:01:16;;;;;;;16.30;15.50;;;10.40;99.90;;;;;;5057708;28;20837;-74
2021/05/22 08:03:43;;;;;;;15.93;15.13;;;10.40;99.90;;;;;;5054472;28;20466;-75
2021/05/22 08:06:10;;;;;;;15.40;14.60;;;10.60;99.90;;;;;;5053828;28;20471;-74
2021/05/22 08:08:36;;;;;;;15.57;14.77;;;10.70;99.90;;;;;;5059853;28;20823;-74
2021/05/22 08:11:03;;;;;;;15.13;14.40;;;10.70;99.90;;;;;;5058281;28;20494;-75
2021/05/22 08:13:31;;;;;;;15.90;15.10;;;10.80;99.90;;;;;;5056849;28;20448;-75
2021/05/22 08:15:57;;;;;;;15.40;14.60;;;10.80;99.90;;;;;;5057130;28;20853;-74
2021/05/22 08:18:25;;;;;;;17.20;15.90;;;10.90;99.90;;;;;;5055034;28;20469;-76
2021/05/22 08:20:53;;;;;;;17.20;16.00;;;10.90;99.90;;;;;;5062587;28;20521;-74
2021/05/22 08:23:20;;;;;;;17.37;16.00;;;11.10;99.90;;;;;;5054394;28;20467;-74
2021/05/22 08:25:47;;;;;;;17.13;15.70;;;11.10;99.90;;;;;;5059580;28;20573;-74
2021/05/22 08:28:20;;;;;;;16.87;15.67;;;11.10;99.90;;;;;;5055586;28;20457;-74
2021/05/22 08:30:47;;;;;;;17.13;15.93;;;11.00;99.90;;;;;;5056349;28;21086;-74
2021/05/22 08:33:13;;;;;;;16.20;15.10;;;10.90;99.90;;;;;;5055040;28;20460;-75
2021/05/22 08:35:41;;;;;;;15.90;14.90;;;10.80;99.90;;;;;;5060079;28;20854;-74
2021/05/22 08:38:08;;;;;;;16.77;15.60;;;10.80;99.90;;;;;;5054438;28;20812;-74
2021/05/22 08:40:34;;;;;;;15.60;14.70;;;11.00;99.90;;;;;;5064575;28;20490;-75
2021/05/22 08:43:00;;;;;;;15.97;14.70;;;11.00;99.90;;;;;;5049778;28;20462;-75
2021/05/22 08:45:29;;;;;;;15.97;14.70;;;11.10;99.90;;;;;;5058617;28;20467;-76
2021/05/22 08:47:57;;;;;;;16.27;14.97;;;11.10;99.90;;;;;;5054821;28;20466;-75
2021/05/22 08:50:23;;;;;;;15.17;14.27;;;11.10;99.90;;;;;;5053175;28;20482;-73
2021/05/22 08:52:54;;;;;;;16.47;14.90;;;11.10;99.90;;;;;;5062825;28;20629;-75
2021/05/22 08:55:21;;;;;;;15.83;14.77;;;11.20;99.90;;;;;;5063511;28;20549;-75
2021/05/22 08:57:47;;;;;;;14.60;13.77;;;11.30;99.90;;;;;;5062373;28;20458;-74
2021/05/22 09:00:16;;;;;;;15.03;14.13;;;11.30;99.90;;;;;;5053412;28;20932;-74
2021/05/22 09:02:43;;;;;;;15.30;14.10;;;11.20;99.90;;;;;;5051931;28;20525;-74
2021/05/22 09:05:17;;;;;;;15.60;14.30;;;11.20;99.90;;;;;;5053652;28;20513;-75
2021/05/22 09:07:45;;;;;;;14.33;13.43;;;11.40;99.90;;;;;;5058099;28;20470;-74
2021/05/22 09:10:16;;;;;;;15.00;13.80;;;11.50;99.90;;;;;;5060275;28;20479;-74
2021/05/22 09:12:44;;;;;;;15.97;14.77;;;11.50;99.90;;;;;;5059395;28;20497;-75
2021/05/22 09:15:13;;;;;;;16.80;15.57;;;11.50;99.90;;;;;;5054198;28;20524;-73
2021/05/22 09:17:46;;;;;;;16.80;15.60;;;11.50;99.90;;;;;;5061242;28;20452;-75
2021/05/22 09:20:15;;;;;;;17.97;16.60;;;11.40;99.90;;;;;;5055746;28;20817;-75
2021/05/22 09:22:42;;;;;;;17.17;15.80;;;11.20;99.90;;;;;;5061569;28;20492;-74
2021/05/22 09:25:10;;;;;;;17.50;16.50;;;11.30;99.90;;;;;;5057776;28;20474;-75
2021/05/22 09:27:39;;;;;;;18.40;17.20;;;11.20;99.90;;;;;;5054057;28;21145;-74
2021/05/22 09:30:11;;;;;;;17.20;16.00;;;11.20;99.90;;;;;;5059402;28;20459;-74
2021/05/22 09:32:38;;;;;;;18.00;16.60;;;11.20;99.90;;;;;;5057239;28;20498;-75
2021/05/22 09:35:06;;;;;;;19.27;17.73;;;11.20;99.90;;;;;;5060917;28;20477;-74
2021/05/22 09:37:44;;;;;;;19.90;18.60;;;11.10;99.90;;;;;;5058673;28;21064;-75
2021/05/22 09:40:12;;;;;;;21.60;20.07;;;11.10;99.90;;;;;;5049850;28;20498;-74
2021/05/22 09:42:41;;;;;;;23.80;21.90;;;10.90;99.90;;;;;;5057336;28;20463;-75
2021/05/22 09:45:30;;;;;;;21.30;19.80;;;10.90;99.90;;;;;;5059404;28;20466;-74
2021/05/22 09:47:59;;;;;;;24.43;22.60;;;10.90;99.90;;;;;;5058516;28;21079;-73
2021/05/22 09:50:32;;;;;;;22.63;20.50;;;10.80;99.90;;;;;;5055910;28;20513;-74
2021/05/22 09:52:59;;;;;;;20.83;19.10;;;10.80;99.90;;;;;;5049636;28;20475;-74
2021/05/22 09:55:25;;;;;;;19.70;18.37;;;10.90;99.90;;;;;;5062321;28;20466;-75
2021/05/22 09:57:55;;;;;;;21.00;19.40;;;10.90;99.90;;;;;;5055480;28;20454;-75
2021/05/22 10:00:24;;;;;;;19.60;18.10;;;10.90;99.90;;;;;;5061639;28;20562;-75
2021/05/22 10:02:52;;;;;;;19.97;18.20;;;10.90;99.90;;;;;;5055736;28;21166;-74
2021/05/22 10:05:20;;;;;;;20.37;18.67;;;10.90;99.90;;;;;;5055692;28;20932;-73
2021/05/22 10:07:48;;;;;;;20.20;18.60;;;10.90;99.90;;;;;;5061941;28;20489;-73
2021/05/22 10:10:16;;;;;;;18.73;17.50;;;11.00;99.90;;;;;;5063518;28;20487;-72
2021/05/22 10:12:44;;;;;;;21.50;18.63;;;11.00;99.90;;;;;;5059506;28;20485;-72
2021/05/22 10:15:14;;;;;;;19.00;17.70;;;11.00;99.90;;;;;;5051944;28;20505;-73
2021/05/22 10:17:42;;;;;;;17.27;16.17;;;11.00;99.90;;;;;;5059431;28;20464;-73
2021/05/22 10:20:10;;;;;;;18.53;17.13;;;11.00;99.90;;;;;;5052929;28;20478;-72
2021/05/22 10:22:37;;;;;;;17.83;16.30;;;11.00;99.90;;;;;;5064115;28;20464;-73
2021/05/22 10:25:05;;;;;;;17.60;16.17;;;11.10;99.90;;;;;;5060713;28;20980;-73
2021/05/22 10:27:33;;;;;;;17.40;16.30;;;11.10;99.90;;;;;;5056444;28;20853;-72
2021/05/22 10:30:00;;;;;;;17.47;16.07;;;11.20;99.90;;;;;;5053645;28;20542;-73
2021/05/22 10:32:28;;;;;;;17.10;16.00;;;11.20;99.90;;;;;;5059637;28;21067;-73
2021/05/22 10:34:55;;;;;;;16.67;15.57;;;11.20;99.90;;;;;;5058526;28;20459;-72
2021/05/22 10:37:37;;;;;;;16.27;15.30;;;11.30;99.90;;;;;;5058829;28;20461;-74
2021/05/22 10:40:05;;;;;;;16.60;15.40;;;11.40;99.90;;;;;;5055533;28;20469;-74
2021/05/22 10:42:55;;;;;;;14.67;13.87;;;11.50;99.90;;;;;;5057721;28;20468;-72
2021/05/22 10:45:30;;;;;;;14.60;13.60;;;11.60;99.90;;;;;;5062116;28;20778;-73
2021/05/22 10:47:59;;;;;;;14.67;13.67;;;11.80;99.90;;;;;;5056788;28;20466;-74
2021/05/22 10:50:44;;;;;;;14.57;13.60;;;11.90;99.90;;;;;;5058599;28;20511;-73
2021/05/22 10:53:25;;;;;;;14.17;12.97;;;12.00;99.90;;;;;;5064903;28;20454;-74
2021/05/22 10:56:04;;;;;;;14.90;13.80;;;12.00;99.90;;;;;;5061137;28;20785;-75
2021/05/22 10:58:30;;;;;;;15.27;14.37;;;12.00;99.90;;;;;;5056840;28;20953;-72
2021/05/22 11:01:34;;;;;;;16.93;15.80;;;12.00;99.90;;;;;;5061113;28;20782;-72
2021/05/22 11:04:31;;;;;;;18.57;17.27;;;11.90;99.90;;;;;;5057953;28;20454;-72
2021/05/22 11:07:01;;;;;;;19.13;17.83;;;11.80;99.90;;;;;;5059955;28;20463;-73
2021/05/22 11:09:43;;;;;;;21.30;19.63;;;11.70;99.90;;;;;;5058612;28;20516;-73
2021/05/22 11:12:43;;;;;;;30.00;20.80;;;11.50;99.90;;;;;;5063683;28;20490;-73
2021/05/22 11:15:40;;;;;;;23.37;21.53;;;11.50;99.90;;;;;;5056686;28;20862;-72
2021/05/22 11:18:07;;;;;;;22.50;20.70;;;11.40;99.90;;;;;;5054431;28;20483;-72
2021/05/22 11:20:35;;;;;;;22.93;21.33;;;11.40;99.90;;;;;;5065109;28;20656;-74
2021/05/22 11:23:02;;;;;;;23.90;21.90;;;11.30;99.90;;;;;;5054485;28;20459;-72
2021/05/22 11:25:48;;;;;;;23.50;21.67;;;11.20;99.90;;;;;;5060299;28;20559;-73
2021/05/22 11:28:20;;;;;;;23.70;21.57;;;11.10;99.90;;;;;;5058699;28;20451;-72
2021/05/22 11:34:32;;;;;;;21.00;19.70;;;11.10;99.90;;;;;;5041243;28;20470;-74
2021/05/22 11:37:33;;;;;;;20.27;19.07;;;11.10;99.90;;;;;;5062398;28;20534;-74
2021/05/22 11:39:59;;;;;;;19.20;18.10;;;11.20;99.90;;;;;;5063019;28;20462;-74
2021/05/22 11:42:44;;;;;;;19.80;18.70;;;11.20;99.90;;;;;;5061479;28;20475;-76
2021/05/22 11:45:10;;;;;;;19.70;18.53;;;11.30;99.90;;;;;;5059147;28;20451;-76
2021/05/22 11:47:38;;;;;;;19.23;18.13;;;11.40;99.90;;;;;;5060002;28;20454;-74
2021/05/22 11:54:19;;;;;;;19.43;18.23;;;11.50;99.90;;;;;;5055719;28;20457;-74
2021/05/22 11:56:55;;;;;;;19.97;18.87;;;11.60;99.90;;;;;;5056131;28;20455;-73
2021/05/22 11:59:21;;;;;;;19.43;18.33;;;11.50;99.90;;;;;;5061253;28;20454;-73
2021/05/22 12:01:55;;;;;;;18.07;17.07;;;11.50;99.90;;;;;;5057333;28;20521;-76
2021/05/22 12:04:22;;;;;;;19.27;18.17;;;11.50;99.90;;;;;;5060415;28;20459;-73
2021/05/22 12:06:52;;;;;;;19.60;18.50;;;11.50;99.90;;;;;;5065439;28;20465;-73
2021/05/22 12:09:20;;;;;;;19.17;18.07;;;11.50;99.90;;;;;;5060488;28;20498;-76
2021/05/22 12:11:59;;;;;;;18.40;17.40;;;11.50;99.90;;;;;;5057780;28;20502;-73
2021/05/22 12:14:38;;;;;;;17.27;16.37;;;11.50;99.90;;;;;;5056140;28;20517;-74
2021/05/22 12:17:04;;;;;;;17.70;16.73;;;11.50;99.90;;;;;;5061239;28;20454;-72
2021/05/22 12:19:34;;;;;;;17.90;16.90;;;11.50;99.90;;;;;;5062110;28;20480;-74
2021/05/22 12:22:02;;;;;;;17.80;16.90;;;11.50;99.90;;;;;;5062000;28;20482;-74
2021/05/22 12:24:29;;;;;;;17.87;16.93;;;11.50;99.90;;;;;;5057754;28;20463;-74
2021/05/22 12:26:57;;;;;;;21.47;19.50;;;11.50;99.90;;;;;;5061020;28;20501;-74
2021/05/22 12:29:25;;;;;;;20.07;18.30;;;11.50;99.90;;;;;;5057165;28;20474;-73
2021/05/22 12:31:55;;;;;;;19.60;18.20;;;11.70;99.90;;;;;;5057955;28;20694;-72
2021/05/22 12:34:27;;;;;;;20.83;18.50;;;11.70;99.90;;;;;;5058215;28;20479;-73
2021/05/22 12:36:55;;;;;;;18.80;17.10;;;11.80;99.90;;;;;;5058910;28;20602;-73
2021/05/22 12:39:22;;;;;;;18.57;17.03;;;11.90;99.90;;;;;;5063877;28;20985;-73
2021/05/22 12:41:48;;;;;;;17.80;16.50;;;11.90;99.90;;;;;;5063935;28;20500;-73
2021/05/22 12:44:22;;;;;;;35.93;16.77;;;12.00;99.90;;;;;;5057222;28;20954;-72